sensor_id;sensor_type;location;lat;lon;timestamp;P1;P4;P2;P0;N10;N4;N25;N1;N05;TS
72225;SPS30;60130;52.250;5.048;2024-02-23T00:00:00;3.17;;2.26;;;;;;;
72225;SPS30;60130;52.250;5.048;2024-02-23T00:05:00;2.38;;1.71;;;;;;;
72225;SPS30;60130;52.250;5.048;2024-02-23T00:10:00;2.52;;1.82;;;;;;;
72225;SPS30;60130;52.250;5.048;2024-02-23T00:15:00;1.83;;1.36;;;;;;;
72225;SPS30;60130;52.250;5.048;2024-02-23T00:20:00;2.40;;1.70;;;;;;;
72225;SPS30;60130;52.250;5.048;2024-02-23T00:25:00;1.87;;1.33;;;;;;;
72225;SPS30;60130;52.250;5.048;2024-02-23T00:30:00;2.29;;1.61;;;;;;;
72225;SPS30;60130;52.250;5.048;2024-02-23T00:35:00;2.10;;1.48;;;;;;;
72225;SPS30;60130;52.250;5.048;2024-02-23T00:40:00;2.10;;1.49;;;;;;;
72225;SPS30;60130;52.250;5.048;2024-02-23T00:45:00;3.88;;2.75;;;;;;;
72225;SPS30;60130;52.250;5.048;2024-02-23T00:50:00;1.98;;1.42;;;;;;;
72225;SPS30;60130;52.250;5.048;2024-02-23T00:55:00;2.70;;1.87;;;;;;;
72225;SPS30;60130;52.250;5.048;2024-02-23T01:00:00;2.43;;1.67;;;;;;;
72225;SPS30;60130;52.250;5.048;2024-02-23T01:05:00;2.78;;1.89;;;;;;;
72225;SPS30;60130;52.250;5.048;2024-02-23T01:10:00;2.54;;1.72;;;;;;;
72225;SPS30;60130;52.250;5.048;2024-02-23T01:15:00;3.12;;2.12;;;;;;;
72225;SPS30;60130;52.250;5.048;2024-02-23T01:20:00;3.03;;2.02;;;;;;;
72225;SPS30;60130;52.250;5.048;2024-02-23T01:25:00;3.81;;2.54;;;;;;;
72225;SPS30;60130;52.250;5.048;2024-02-23T01:30:00;2.74;;1.82;;;;;;;
72225;SPS30;60130;52.250;5.048;2024-02-23T01:35:00;3.81;;2.60;;;;;;;
72225;SPS30;60130;52.250;5.048;2024-02-23T01:40:00;2.93;;1.97;;;;;;;
72225;SPS30;60130;52.250;5.048;2024-02-23T01:45:00;2.21;;1.49;;;;;;;
72225;SPS30;60130;52.250;5.048;2024-02-23T01:50:00;1.92;;1.31;;;;;;;
72225;SPS30;60130;52.250;5.048;2024-02-23T01:55:00;3.17;;2.17;;;;;;;
72225;SPS30;60130;52.250;5.048;2024-02-23T02:00:00;1.88;;1.31;;;;;;;
72225;SPS30;60130;52.250;5.048;2024-02-23T02:05:00;1.67;;1.16;;;;;;;
72225;SPS30;60130;52.250;5.048;2024-02-23T02:10:00;2.22;;1.56;;;;;;;
72225;SPS30;60130;52.250;5.048;2024-02-23T02:15:00;1.80;;1.26;;;;;;;
72225;SPS30;60130;52.250;5.048;2024-02-23T02:20:00;1.16;;0.80;;;;;;;
72225;SPS30;60130;52.250;5.048;2024-02-23T02:25:00;1.78;;1.23;;;;;;;
72225;SPS30;60130;52.250;5.048;2024-02-23T02:30:00;2.71;;1.87;;;;;;;
72225;SPS30;60130;52.250;5.048;2024-02-23T02:35:00;1.41;;0.96;;;;;;;
72225;SPS30;60130;52.250;5.048;2024-02-23T02:40:00;2.84;;1.90;;;;;;;
72225;SPS30;60130;52.250;5.048;2024-02-23T02:45:00;1.75;;1.19;;;;;;;
72225;SPS30;60130;52.250;5.048;2024-02-23T02:50:00;1.57;;1.07;;;;;;;
72225;SPS30;60130;52.250;5.048;2024-02-23T02:55:00;2.57;;1.75;;;;;;;
72225;SPS30;60130;52.250;5.048;2024-02-23T03:00:00;3.24;;2.19;;;;;;;
72225;SPS30;60130;52.250;5.048;2024-02-23T03:05:00;2.01;;1.41;;;;;;;
72225;SPS30;60130;52.250;5.048;2024-02-23T03:10:00;1.50;;1.06;;;;;;;
72225;SPS30;60130;52.250;5.048;2024-02-23T03:15:00;1.62;;1.13;;;;;;;
72225;SPS30;60130;52.250;5.048;2024-02-23T03:20:00;1.55;;1.08;;;;;;;
72225;SPS30;60130;52.250;5.048;2024-02-23T03:25:00;2.43;;1.69;;;;;;;
72225;SPS30;60130;52.250;5.048;2024-02-23T03:30:00;2.90;;2.04;;;;;;;
72225;SPS30;60130;52.250;5.048;2024-02-23T03:35:00;2.03;;1.46;;;;;;;
72225;SPS30;60130;52.250;5.048;2024-02-23T03:40:00;2.11;;1.59;;;;;;;
72225;SPS30;60130;52.250;5.048;2024-02-23T03:45:00;1.57;;1.18;;;;;;;
72225;SPS30;60130;52.250;5.048;2024-02-23T03:50:00;2.74;;2.08;;;;;;;
72225;SPS30;60130;52.250;5.048;2024-02-23T03:55:00;2.32;;1.76;;;;;;;
72225;SPS30;60130;52.250;5.048;2024-02-23T04:00:00;2.15;;1.66;;;;;;;
72225;SPS30;60130;52.250;5.048;2024-02-23T04:05:00;1.87;;1.43;;;;;;;
72225;SPS30;60130;52.250;5.048;2024-02-23T04:10:00;2.06;;1.58;;;;;;;
72225;SPS30;60130;52.250;5.048;2024-02-23T04:15:00;2.31;;1.75;;;;;;;
72225;SPS30;60130;52.250;5.048;2024-02-23T04:20:00;1.56;;1.16;;;;;;;
72225;SPS30;60130;52.250;5.048;2024-02-23T04:25:00;1.95;;1.47;;;;;;;
72225;SPS30;60130;52.250;5.048;2024-02-23T04:30:00;1.89;;1.43;;;;;;;
72225;SPS30;60130;52.250;5.048;2024-02-23T04:35:00;1.92;;1.46;;;;;;;
72225;SPS30;60130;52.250;5.048;2024-02-23T04:40:00;1.71;;1.36;;;;;;;
72225;SPS30;60130;52.250;5.048;2024-02-23T04:45:00;1.65;;1.32;;;;;;;
72225;SPS30;60130;52.250;5.048;2024-02-23T04:50:00;1.96;;1.52;;;;;;;
72225;SPS30;60130;52.250;5.048;2024-02-23T04:55:00;1.77;;1.39;;;;;;;
72225;SPS30;60130;52.250;5.048;2024-02-23T05:00:00;1.63;;1.25;;;;;;;
72225;SPS30;60130;52.250;5.048;2024-02-23T05:05:00;2.59;;2.03;;;;;;;
72225;SPS30;60130;52.250;5.048;2024-02-23T05:10:00;2.09;;1.62;;;;;;;
72225;SPS30;60130;52.250;5.048;2024-02-23T05:15:00;2.20;;1.70;;;;;;;
72225;SPS30;60130;52.250;5.048;2024-02-23T05:20:00;2.06;;1.67;;;;;;;
72225;SPS30;60130;52.250;5.048;2024-02-23T05:25:00;2.50;;2.04;;;;;;;
72225;SPS30;60130;52.250;5.048;2024-02-23T05:30:00;2.22;;1.82;;;;;;;
72225;SPS30;60130;52.250;5.048;2024-02-23T05:35:00;1.97;;1.62;;;;;;;
72225;SPS30;60130;52.250;5.048;2024-02-23T05:40:00;1.79;;1.52;;;;;;;
72225;SPS30;60130;52.250;5.048;2024-02-23T05:45:00;1.68;;1.49;;;;;;;
72225;SPS30;60130;52.250;5.048;2024-02-23T05:50:00;2.01;;1.77;;;;;;;
72225;SPS30;60130;52.250;5.048;2024-02-23T05:55:00;2.19;;1.93;;;;;;;
72225;SPS30;60130;52.250;5.048;2024-02-23T06:00:00;2.10;;1.93;;;;;;;
72225;SPS30;60130;52.250;5.048;2024-02-23T06:05:00;3.55;;3.47;;;;;;;
72225;SPS30;60130;52.250;5.048;2024-02-23T06:10:00;2.63;;2.58;;;;;;;
72225;SPS30;60130;52.250;5.048;2024-02-23T06:15:00;2.81;;2.77;;;;;;;
72225;SPS30;60130;52.250;5.048;2024-02-23T06:20:00;2.50;;2.43;;;;;;;
72225;SPS30;60130;52.250;5.048;2024-02-23T06:25:00;1.87;;1.85;;;;;;;
72225;SPS30;60130;52.250;5.048;2024-02-23T06:30:00;2.01;;1.96;;;;;;;
72225;SPS30;60130;52.250;5.048;2024-02-23T06:35:00;2.08;;2.02;;;;;;;
72225;SPS30;60130;52.250;5.048;2024-02-23T06:40:00;2.05;;1.96;;;;;;;
72225;SPS30;60130;52.250;5.048;2024-02-23T06:45:00;1.79;;1.75;;;;;;;
72225;SPS30;60130;52.250;5.048;2024-02-23T06:50:00;2.25;;2.17;;;;;;;
72225;SPS30;60130;52.250;5.048;2024-02-23T06:55:01;2.35;;2.26;;;;;;;
72225;SPS30;60130;52.250;5.048;2024-02-23T07:00:00;1.95;;1.89;;;;;;;
72225;SPS30;60130;52.250;5.048;2024-02-23T07:05:00;2.05;;1.98;;;;;;;
72225;SPS30;60130;52.250;5.048;2024-02-23T07:10:00;2.50;;2.41;;;;;;;
72225;SPS30;60130;52.250;5.048;2024-02-23T07:15:00;2.53;;2.38;;;;;;;
72225;SPS30;60130;52.250;5.048;2024-02-23T07:20:00;2.83;;2.78;;;;;;;
72225;SPS30;60130;52.250;5.048;2024-02-23T07:25:00;1.94;;1.91;;;;;;;
72225;SPS30;60130;52.250;5.048;2024-02-23T07:30:01;2.36;;2.36;;;;;;;
72225;SPS30;60130;52.250;5.048;2024-02-23T07:35:01;2.18;;2.17;;;;;;;
72225;SPS30;60130;52.250;5.048;2024-02-23T07:40:01;1.75;;1.74;;;;;;;
72225;SPS30;60130;52.250;5.048;2024-02-23T07:45:00;1.64;;1.61;;;;;;;
72225;SPS30;60130;52.250;5.048;2024-02-23T07:50:00;2.04;;2.01;;;;;;;
72225;SPS30;60130;52.250;5.048;2024-02-23T07:55:00;2.09;;2.03;;;;;;;
72225;SPS30;60130;52.250;5.048;2024-02-23T08:00:00;1.23;;1.17;;;;;;;
72225;SPS30;60130;52.250;5.048;2024-02-23T08:05:00;1.77;;1.66;;;;;;;
72225;SPS30;60130;52.250;5.048;2024-02-23T08:10:00;1.77;;1.65;;;;;;;
72225;SPS30;60130;52.250;5.048;2024-02-23T08:15:00;1.43;;1.33;;;;;;;
72225;SPS30;60130;52.250;5.048;2024-02-23T08:20:00;1.76;;1.59;;;;;;;
72225;SPS30;60130;52.250;5.048;2024-02-23T08:25:00;1.77;;1.56;;;;;;;
72225;SPS30;60130;52.250;5.048;2024-02-23T08:30:00;1.43;;1.29;;;;;;;
72225;SPS30;60130;52.250;5.048;2024-02-23T08:35:00;1.40;;1.24;;;;;;;
72225;SPS30;60130;52.250;5.048;2024-02-23T08:40:00;1.59;;1.37;;;;;;;
72225;SPS30;60130;52.250;5.048;2024-02-23T08:45:00;1.76;;1.54;;;;;;;
72225;SPS30;60130;52.250;5.048;2024-02-23T08:50:00;1.82;;1.56;;;;;;;
72225;SPS30;60130;52.250;5.048;2024-02-23T08:55:00;1.74;;1.52;;;;;;;
72225;SPS30;60130;52.250;5.048;2024-02-23T09:00:00;1.80;;1.55;;;;;;;
72225;SPS30;60130;52.250;5.048;2024-02-23T09:05:00;1.81;;1.56;;;;;;;
72225;SPS30;60130;52.250;5.048;2024-02-23T09:10:00;1.03;;0.89;;;;;;;
72225;SPS30;60130;52.250;5.048;2024-02-23T09:15:00;1.97;;1.77;;;;;;;
72225;SPS30;60130;52.250;5.048;2024-02-23T09:20:00;1.57;;1.43;;;;;;;
72225;SPS30;60130;52.250;5.048;2024-02-23T09:25:00;1.49;;1.36;;;;;;;
72225;SPS30;60130;52.250;5.048;2024-02-23T09:30:00;1.00;;0.92;;;;;;;
72225;SPS30;60130;52.250;5.048;2024-02-23T09:35:00;2.43;;2.23;;;;;;;
72225;SPS30;60130;52.250;5.048;2024-02-23T09:40:00;2.26;;2.09;;;;;;;
72225;SPS30;60130;52.250;5.048;2024-02-23T09:45:00;1.76;;1.68;;;;;;;
72225;SPS30;60130;52.250;5.048;2024-02-23T09:50:00;1.92;;1.86;;;;;;;
72225;SPS30;60130;52.250;5.048;2024-02-23T09:55:00;1.76;;1.76;;;;;;;
72225;SPS30;60130;52.250;5.048;2024-02-23T10:00:00;1.86;;1.83;;;;;;;
72225;SPS30;60130;52.250;5.048;2024-02-23T10:05:00;1.49;;1.44;;;;;;;
72225;SPS30;60130;52.250;5.048;2024-02-23T10:10:00;1.52;;1.46;;;;;;;
72225;SPS30;60130;52.250;5.048;2024-02-23T10:15:00;1.12;;1.07;;;;;;;
72225;SPS30;60130;52.250;5.048;2024-02-23T10:20:00;1.94;;1.86;;;;;;;
72225;SPS30;60130;52.250;5.048;2024-02-23T10:25:00;1.80;;1.74;;;;;;;
72225;SPS30;60130;52.250;5.048;2024-02-23T10:30:00;1.55;;1.51;;;;;;;
72225;SPS30;60130;52.250;5.048;2024-02-23T10:35:00;1.46;;1.40;;;;;;;
72225;SPS30;60130;52.250;5.048;2024-02-23T10:40:00;1.63;;1.58;;;;;;;
72225;SPS30;60130;52.250;5.048;2024-02-23T10:45:00;1.66;;1.61;;;;;;;
72225;SPS30;60130;52.250;5.048;2024-02-23T10:50:00;2.07;;2.00;;;;;;;
72225;SPS30;60130;52.250;5.048;2024-02-23T10:55:00;1.76;;1.71;;;;;;;
72225;SPS30;60130;52.250;5.048;2024-02-23T11:00:00;1.38;;1.35;;;;;;;
72225;SPS30;60130;52.250;5.048;2024-02-23T11:05:00;2.00;;1.94;;;;;;;
72225;SPS30;60130;52.250;5.048;2024-02-23T11:10:00;1.22;;1.19;;;;;;;
72225;SPS30;60130;52.250;5.048;2024-02-23T11:15:00;1.66;;1.66;;;;;;;
72225;SPS30;60130;52.250;5.048;2024-02-23T11:20:02;1.53;;1.51;;;;;;;
72225;SPS30;60130;52.250;5.048;2024-02-23T11:25:00;1.38;;1.36;;;;;;;
72225;SPS30;60130;52.250;5.048;2024-02-23T11:30:01;1.53;;1.53;;;;;;;
72225;SPS30;60130;52.250;5.048;2024-02-23T11:35:00;1.63;;1.63;;;;;;;
72225;SPS30;60130;52.250;5.048;2024-02-23T11:40:00;1.21;;1.21;;;;;;;
72225;SPS30;60130;52.250;5.048;2024-02-23T11:45:00;1.27;;1.27;;;;;;;
72225;SPS30;60130;52.250;5.048;2024-02-23T11:50:00;0.90;;0.89;;;;;;;
72225;SPS30;60130;52.250;5.048;2024-02-23T11:55:00;1.47;;1.47;;;;;;;
72225;SPS30;60130;52.250;5.048;2024-02-23T12:00:00;0.99;;0.98;;;;;;;
72225;SPS30;60130;52.250;5.048;2024-02-23T12:05:00;1.09;;1.09;;;;;;;
72225;SPS30;60130;52.250;5.048;2024-02-23T12:10:00;1.60;;1.56;;;;;;;
72225;SPS30;60130;52.250;5.048;2024-02-23T12:15:00;0.91;;0.91;;;;;;;
72225;SPS30;60130;52.250;5.048;2024-02-23T12:20:01;0.81;;0.78;;;;;;;
72225;SPS30;60130;52.250;5.048;2024-02-23T12:25:00;1.09;;1.02;;;;;;;
72225;SPS30;60130;52.250;5.048;2024-02-23T12:30:00;1.08;;1.02;;;;;;;
72225;SPS30;60130;52.250;5.048;2024-02-23T12:35:00;0.77;;0.71;;;;;;;
72225;SPS30;60130;52.250;5.048;2024-02-23T12:40:00;0.91;;0.84;;;;;;;
72225;SPS30;60130;52.250;5.048;2024-02-23T12:45:00;0.90;;0.82;;;;;;;
72225;SPS30;60130;52.250;5.048;2024-02-23T12:50:00;1.39;;1.28;;;;;;;
72225;SPS30;60130;52.250;5.048;2024-02-23T12:55:00;1.04;;0.93;;;;;;;
72225;SPS30;60130;52.250;5.048;2024-02-23T13:00:00;1.21;;1.05;;;;;;;
72225;SPS30;60130;52.250;5.048;2024-02-23T13:05:00;1.86;;1.63;;;;;;;
72225;SPS30;60130;52.250;5.048;2024-02-23T13:10:00;1.41;;1.25;;;;;;;
72225;SPS30;60130;52.250;5.048;2024-02-23T13:15:00;1.51;;1.32;;;;;;;
72225;SPS30;60130;52.250;5.048;2024-02-23T13:20:00;1.36;;1.18;;;;;;;
72225;SPS30;60130;52.250;5.048;2024-02-23T13:25:00;0.89;;0.79;;;;;;;
72225;SPS30;60130;52.250;5.048;2024-02-23T13:30:00;1.26;;1.12;;;;;;;
72225;SPS30;60130;52.250;5.048;2024-02-23T13:35:00;1.03;;0.95;;;;;;;
72225;SPS30;60130;52.250;5.048;2024-02-23T13:40:00;1.09;;1.00;;;;;;;
72225;SPS30;60130;52.250;5.048;2024-02-23T13:45:00;1.31;;1.20;;;;;;;
72225;SPS30;60130;52.250;5.048;2024-02-23T13:50:00;1.21;;1.11;;;;;;;
72225;SPS30;60130;52.250;5.048;2024-02-23T13:55:00;0.87;;0.78;;;;;;;
72225;SPS30;60130;52.250;5.048;2024-02-23T14:00:00;1.07;;1.00;;;;;;;
72225;SPS30;60130;52.250;5.048;2024-02-23T14:05:00;0.70;;0.67;;;;;;;
72225;SPS30;60130;52.250;5.048;2024-02-23T14:10:00;0.99;;0.95;;;;;;;
72225;SPS30;60130;52.250;5.048;2024-02-23T14:15:00;0.68;;0.65;;;;;;;
72225;SPS30;60130;52.250;5.048;2024-02-23T14:20:00;0.27;;0.27;;;;;;;
72225;SPS30;60130;52.250;5.048;2024-02-23T14:25:00;0.47;;0.47;;;;;;;
72225;SPS30;60130;52.250;5.048;2024-02-23T14:30:00;0.61;;0.59;;;;;;;
72225;SPS30;60130;52.250;5.048;2024-02-23T14:35:01;0.31;;0.31;;;;;;;
72225;SPS30;60130;52.250;5.048;2024-02-23T14:40:00;0.61;;0.58;;;;;;;
72225;SPS30;60130;52.250;5.048;2024-02-23T14:45:00;0.21;;0.20;;;;;;;
72225;SPS30;60130;52.250;5.048;2024-02-23T14:50:00;0.74;;0.70;;;;;;;
72225;SPS30;60130;52.250;5.048;2024-02-23T14:55:00;0.36;;0.34;;;;;;;
72225;SPS30;60130;52.250;5.048;2024-02-23T15:00:00;0.66;;0.62;;;;;;;
72225;SPS30;60130;52.250;5.048;2024-02-23T15:05:00;0.39;;0.36;;;;;;;
72225;SPS30;60130;52.250;5.048;2024-02-23T15:10:00;1.01;;0.94;;;;;;;
72225;SPS30;60130;52.250;5.048;2024-02-23T15:15:00;0.75;;0.70;;;;;;;
72225;SPS30;60130;52.250;5.048;2024-02-23T15:20:00;0.58;;0.55;;;;;;;
72225;SPS30;60130;52.250;5.048;2024-02-23T15:25:00;0.62;;0.60;;;;;;;
72225;SPS30;60130;52.250;5.048;2024-02-23T15:30:00;0.82;;0.79;;;;;;;
72225;SPS30;60130;52.250;5.048;2024-02-23T15:35:00;0.71;;0.69;;;;;;;
72225;SPS30;60130;52.250;5.048;2024-02-23T15:40:00;0.64;;0.62;;;;;;;
72225;SPS30;60130;52.250;5.048;2024-02-23T15:45:00;0.53;;0.52;;;;;;;
72225;SPS30;60130;52.250;5.048;2024-02-23T15:50:00;0.47;;0.46;;;;;;;
72225;SPS30;60130;52.250;5.048;2024-02-23T15:55:00;0.75;;0.72;;;;;;;
72225;SPS30;60130;52.250;5.048;2024-02-23T16:00:00;0.78;;0.76;;;;;;;
72225;SPS30;60130;52.250;5.048;2024-02-23T16:05:00;0.89;;0.88;;;;;;;
72225;SPS30;60130;52.250;5.048;2024-02-23T16:10:00;0.77;;0.77;;;;;;;
72225;SPS30;60130;52.250;5.048;2024-02-23T16:15:00;1.17;;1.16;;;;;;;
72225;SPS30;60130;52.250;5.048;2024-02-23T16:20:00;0.83;;0.81;;;;;;;
72225;SPS30;60130;52.250;5.048;2024-02-23T16:25:00;1.48;;1.46;;;;;;;
72225;SPS30;60130;52.250;5.048;2024-02-23T16:30:00;1.40;;1.40;;;;;;;
72225;SPS30;60130;52.250;5.048;2024-02-23T16:35:00;1.40;;1.40;;;;;;;
72225;SPS30;60130;52.250;5.048;2024-02-23T16:40:00;1.39;;1.39;;;;;;;
72225;SPS30;60130;52.250;5.048;2024-02-23T16:45:00;1.23;;1.23;;;;;;;
72225;SPS30;60130;52.250;5.048;2024-02-23T16:50:00;1.45;;1.45;;;;;;;
72225;SPS30;60130;52.250;5.048;2024-02-23T16:55:00;1.26;;1.26;;;;;;;
72225;SPS30;60130;52.250;5.048;2024-02-23T17:00:00;1.20;;1.20;;;;;;;
72225;SPS30;60130;52.250;5.048;2024-02-23T17:05:00;1.14;;1.14;;;;;;;
72225;SPS30;60130;52.250;5.048;2024-02-23T17:10:00;1.22;;1.22;;;;;;;
72225;SPS30;60130;52.250;5.048;2024-02-23T17:15:00;1.17;;1.17;;;;;;;
72225;SPS30;60130;52.250;5.048;2024-02-23T17:20:00;1.46;;1.43;;;;;;;
72225;SPS30;60130;52.250;5.048;2024-02-23T17:25:00;1.33;;1.32;;;;;;;
72225;SPS30;60130;52.250;5.048;2024-02-23T17:30:00;1.35;;1.34;;;;;;;
72225;SPS30;60130;52.250;5.048;2024-02-23T17:35:00;1.52;;1.51;;;;;;;
72225;SPS30;60130;52.250;5.048;2024-02-23T17:40:00;1.58;;1.58;;;;;;;
72225;SPS30;60130;52.250;5.048;2024-02-23T17:45:00;0.81;;0.81;;;;;;;
72225;SPS30;60130;52.250;5.048;2024-02-23T17:50:00;1.67;;1.67;;;;;;;
72225;SPS30;60130;52.250;5.048;2024-02-23T17:55:00;1.55;;1.55;;;;;;;
72225;SPS30;60130;52.250;5.048;2024-02-23T18:00:00;1.75;;1.75;;;;;;;
72225;SPS30;60130;52.250;5.048;2024-02-23T18:05:00;0.91;;0.91;;;;;;;
72225;SPS30;60130;52.250;5.048;2024-02-23T18:10:01;0.93;;0.93;;;;;;;
72225;SPS30;60130;52.250;5.048;2024-02-23T18:15:00;0.75;;0.75;;;;;;;
72225;SPS30;60130;52.250;5.048;2024-02-23T18:20:00;0.43;;0.43;;;;;;;
72225;SPS30;60130;52.250;5.048;2024-02-23T18:25:00;0.40;;0.40;;;;;;;
72225;SPS30;60130;52.250;5.048;2024-02-23T18:30:00;1.24;;1.24;;;;;;;
72225;SPS30;60130;52.250;5.048;2024-02-23T18:35:00;1.06;;1.06;;;;;;;
72225;SPS30;60130;52.250;5.048;2024-02-23T18:40:00;0.93;;0.93;;;;;;;
72225;SPS30;60130;52.250;5.048;2024-02-23T18:45:00;0.79;;0.79;;;;;;;
72225;SPS30;60130;52.250;5.048;2024-02-23T18:50:00;0.91;;0.90;;;;;;;
72225;SPS30;60130;52.250;5.048;2024-02-23T18:55:01;2.16;;2.16;;;;;;;
72225;SPS30;60130;52.250;5.048;2024-02-23T19:00:00;0.86;;0.86;;;;;;;
72225;SPS30;60130;52.250;5.048;2024-02-23T19:05:00;1.21;;1.21;;;;;;;
72225;SPS30;60130;52.250;5.048;2024-02-23T19:10:00;1.37;;1.36;;;;;;;
72225;SPS30;60130;52.250;5.048;2024-02-23T19:15:00;0.91;;0.91;;;;;;;
72225;SPS30;60130;52.250;5.048;2024-02-23T19:20:00;0.99;;0.98;;;;;;;
72225;SPS30;60130;52.250;5.048;2024-02-23T19:25:00;1.01;;1.01;;;;;;;
72225;SPS30;60130;52.250;5.048;2024-02-23T19:30:00;0.65;;0.65;;;;;;;
72225;SPS30;60130;52.250;5.048;2024-02-23T19:35:00;0.72;;0.71;;;;;;;
72225;SPS30;60130;52.250;5.048;2024-02-23T19:40:00;1.06;;1.04;;;;;;;
72225;SPS30;60130;52.250;5.048;2024-02-23T19:45:00;1.03;;1.02;;;;;;;
72225;SPS30;60130;52.250;5.048;2024-02-23T19:50:00;1.66;;1.65;;;;;;;
72225;SPS30;60130;52.250;5.048;2024-02-23T19:55:00;1.80;;1.76;;;;;;;
72225;SPS30;60130;52.250;5.048;2024-02-23T20:00:00;1.40;;1.39;;;;;;;
72225;SPS30;60130;52.250;5.048;2024-02-23T20:05:00;1.20;;1.20;;;;;;;
72225;SPS30;60130;52.250;5.048;2024-02-23T20:10:00;0.90;;0.90;;;;;;;
72225;SPS30;60130;52.250;5.048;2024-02-23T20:15:00;0.55;;0.55;;;;;;;
72225;SPS30;60130;52.250;5.048;2024-02-23T20:20:00;0.58;;0.58;;;;;;;
72225;SPS30;60130;52.250;5.048;2024-02-23T20:25:00;0.44;;0.44;;;;;;;
72225;SPS30;60130;52.250;5.048;2024-02-23T20:30:00;0.52;;0.52;;;;;;;
72225;SPS30;60130;52.250;5.048;2024-02-23T20:35:00;0.86;;0.86;;;;;;;
72225;SPS30;60130;52.250;5.048;2024-02-23T20:40:00;0.54;;0.54;;;;;;;
72225;SPS30;60130;52.250;5.048;2024-02-23T20:45:00;0.83;;0.83;;;;;;;
72225;SPS30;60130;52.250;5.048;2024-02-23T20:50:00;1.05;;1.05;;;;;;;
72225;SPS30;60130;52.250;5.048;2024-02-23T20:55:00;0.78;;0.78;;;;;;;
72225;SPS30;60130;52.250;5.048;2024-02-23T21:00:00;0.89;;0.89;;;;;;;
72225;SPS30;60130;52.250;5.048;2024-02-23T21:05:00;0.83;;0.83;;;;;;;
72225;SPS30;60130;52.250;5.048;2024-02-23T21:10:00;0.96;;0.96;;;;;;;
72225;SPS30;60130;52.250;5.048;2024-02-23T21:15:00;1.08;;1.08;;;;;;;
72225;SPS30;60130;52.250;5.048;2024-02-23T21:20:00;1.25;;1.25;;;;;;;
72225;SPS30;60130;52.250;5.048;2024-02-23T21:25:00;1.19;;1.19;;;;;;;
72225;SPS30;60130;52.250;5.048;2024-02-23T21:30:00;0.82;;0.82;;;;;;;
72225;SPS30;60130;52.250;5.048;2024-02-23T21:35:00;0.75;;0.75;;;;;;;
72225;SPS30;60130;52.250;5.048;2024-02-23T21:40:00;1.36;;1.36;;;;;;;
72225;SPS30;60130;52.250;5.048;2024-02-23T21:45:00;0.98;;0.98;;;;;;;
72225;SPS30;60130;52.250;5.048;2024-02-23T21:50:00;0.60;;0.60;;;;;;;
72225;SPS30;60130;52.250;5.048;2024-02-23T21:55:00;1.01;;1.01;;;;;;;
72225;SPS30;60130;52.250;5.048;2024-02-23T22:00:00;1.09;;1.09;;;;;;;
72225;SPS30;60130;52.250;5.048;2024-02-23T22:05:00;1.16;;1.16;;;;;;;
72225;SPS30;60130;52.250;5.048;2024-02-23T22:10:00;0.78;;0.78;;;;;;;
72225;SPS30;60130;52.250;5.048;2024-02-23T22:15:00;1.00;;1.00;;;;;;;
72225;SPS30;60130;52.250;5.048;2024-02-23T22:20:00;0.83;;0.83;;;;;;;
72225;SPS30;60130;52.250;5.048;2024-02-23T22:25:00;0.95;;0.95;;;;;;;
72225;SPS30;60130;52.250;5.048;2024-02-23T22:30:00;0.74;;0.74;;;;;;;
72225;SPS30;60130;52.250;5.048;2024-02-23T22:35:00;1.02;;1.02;;;;;;;
72225;SPS30;60130;52.250;5.048;2024-02-23T22:40:00;1.40;;1.40;;;;;;;
72225;SPS30;60130;52.250;5.048;2024-02-23T22:45:00;1.03;;1.03;;;;;;;
72225;SPS30;60130;52.250;5.048;2024-02-23T22:50:00;1.02;;1.02;;;;;;;
72225;SPS30;60130;52.250;5.048;2024-02-23T22:55:00;1.14;;1.14;;;;;;;
72225;SPS30;60130;52.250;5.048;2024-02-23T23:00:00;1.41;;1.41;;;;;;;
72225;SPS30;60130;52.250;5.048;2024-02-23T23:05:00;1.66;;1.66;;;;;;;
72225;SPS30;60130;52.250;5.048;2024-02-23T23:10:00;1.83;;1.82;;;;;;;
72225;SPS30;60130;52.250;5.048;2024-02-23T23:15:00;2.41;;2.39;;;;;;;
72225;SPS30;60130;52.250;5.048;2024-02-23T23:20:00;2.54;;2.52;;;;;;;
72225;SPS30;60130;52.250;5.048;2024-02-23T23:25:00;2.04;;2.04;;;;;;;
72225;SPS30;60130;52.250;5.048;2024-02-23T23:30:00;2.48;;2.48;;;;;;;
72225;SPS30;60130;52.250;5.048;2024-02-23T23:35:00;2.55;;2.53;;;;;;;
72225;SPS30;60130;52.250;5.048;2024-02-23T23:40:00;3.04;;3.01;;;;;;;
72225;SPS30;60130;52.250;5.048;2024-02-23T23:45:00;2.71;;2.67;;;;;;;
72225;SPS30;60130;52.250;5.048;2024-02-23T23:50:00;2.96;;2.90;;;;;;;
72225;SPS30;60130;52.250;5.048;2024-02-23T23:55:00;2.81;;2.77;;;;;;;
